createdAt,value
2019-05-18T00:00:51.699Z,78.07
2019-05-18T00:03:19.295Z,77.93
2019-05-18T00:05:46.824Z,78.06
2019-05-18T00:08:14.269Z,78.33
2019-05-18T00:10:41.738Z,78.30
2019-05-18T00:13:09.223Z,78.28
2019-05-18T00:15:36.694Z,78.05
2019-05-18T00:18:04.213Z,78.05
2019-05-18T00:20:31.691Z,78.29
2019-05-18T00:22:59.185Z,78.26
2019-05-18T00:25:26.705Z,78.26
2019-05-18T00:27:54.181Z,78.43
2019-05-18T00:30:21.973Z,78.49
2019-05-18T00:32:49.479Z,78.61
2019-05-18T00:35:17.016Z,78.81
2019-05-18T00:37:44.488Z,78.74
2019-05-18T00:40:12.003Z,78.53
2019-05-18T00:42:39.533Z,78.34
2019-05-18T00:45:07.005Z,78.25
2019-05-18T00:47:41.249Z,78.24
2019-05-18T00:50:01.983Z,78.17
2019-05-18T00:52:29.472Z,78.30
2019-05-18T00:54:56.955Z,78.40
2019-05-18T00:57:24.464Z,78.68
2019-05-18T00:59:51.917Z,78.87
2019-05-18T01:02:19.394Z,78.68
2019-05-18T01:04:46.893Z,78.74
2019-05-18T01:07:14.442Z,78.61
2019-05-18T01:09:41.946Z,78.68
2019-05-18T01:12:09.422Z,78.76
2019-05-18T01:14:36.882Z,78.61
2019-05-18T01:17:04.336Z,78.58
2019-05-18T01:19:31.794Z,78.40
2019-05-18T01:21:59.284Z,78.25
2019-05-18T01:24:26.780Z,78.29
2019-05-18T01:26:54.501Z,78.11
2019-05-18T01:29:22.039Z,77.98
2019-05-18T01:31:49.828Z,77.88
2019-05-18T01:34:17.455Z,78.03
2019-05-18T01:36:45.036Z,78.02
2019-05-18T01:39:12.477Z,78.40
2019-05-18T01:41:39.934Z,78.24
2019-05-18T01:44:07.389Z,78.10
2019-05-18T01:46:34.955Z,78.53
2019-05-18T01:49:02.439Z,78.55
2019-05-18T01:51:29.939Z,78.85
2019-05-18T01:53:57.419Z,78.61
2019-05-18T01:56:24.936Z,78.24
2019-05-18T01:58:52.529Z,78.50
2019-05-18T02:01:20.060Z,78.57
2019-05-18T02:03:47.526Z,78.28
2019-05-18T02:06:15.013Z,78.54
2019-05-18T02:08:42.474Z,78.33
2019-05-18T02:11:09.967Z,78.59
2019-05-18T02:13:37.460Z,78.79
2019-05-18T02:16:04.949Z,79.12
2019-05-18T02:18:32.426Z,79.30
2019-05-18T02:20:59.934Z,79.39
2019-05-18T02:23:27.396Z,79.41
2019-05-18T02:25:54.960Z,79.42
2019-05-18T02:28:22.463Z,79.49
2019-05-18T02:30:49.946Z,79.53
2019-05-18T02:33:17.718Z,79.33
2019-05-18T02:35:45.193Z,79.45
2019-05-18T02:38:16.683Z,79.54
2019-05-18T02:40:45.145Z,79.57
2019-05-18T02:43:12.618Z,79.73
2019-05-18T02:45:40.224Z,79.63
2019-05-18T02:48:07.681Z,79.32
2019-05-18T02:50:35.207Z,79.57
2019-05-18T02:53:02.691Z,79.42
2019-05-18T02:55:30.221Z,79.34
2019-05-18T02:57:58.240Z,79.40
2019-05-18T03:00:25.771Z,79.62
2019-05-18T03:02:53.246Z,79.37
2019-05-18T03:05:20.737Z,79.34
2019-05-18T03:07:48.286Z,78.99
2019-05-18T03:10:15.805Z,79.23
2019-05-18T03:12:43.304Z,79.11
2019-05-18T03:15:10.777Z,79.22
2019-05-18T03:17:38.320Z,79.29
2019-05-18T03:20:05.795Z,79.40
2019-05-18T03:22:33.284Z,79.58
2019-05-18T03:25:00.740Z,79.28
2019-05-18T03:27:28.219Z,79.16
2019-05-18T03:29:55.712Z,79.26
2019-05-18T03:32:23.159Z,79.29
2019-05-18T03:34:50.691Z,79.10
2019-05-18T03:37:18.181Z,79.04
2019-05-18T03:39:45.701Z,78.93
2019-05-18T03:42:13.158Z,78.94
2019-05-18T03:44:40.666Z,79.18
2019-05-18T03:47:08.114Z,79.21
2019-05-18T03:49:35.895Z,79.25
2019-05-18T03:52:03.372Z,79.21
2019-05-18T03:54:30.864Z,79.41
2019-05-18T03:56:58.324Z,79.29
2019-05-18T03:59:25.813Z,79.06
2019-05-18T04:01:53.286Z,79.02
2019-05-18T04:04:20.810Z,79.10
2019-05-18T04:06:48.318Z,78.90
2019-05-18T04:09:15.890Z,78.90
2019-05-18T04:11:43.334Z,79.16
2019-05-18T04:14:11.161Z,79.29
2019-05-18T04:16:38.796Z,79.22
2019-05-18T04:19:06.322Z,79.12
2019-05-18T04:21:33.796Z,79.26
2019-05-18T04:24:01.266Z,79.22
2019-05-18T04:26:28.726Z,79.13
2019-05-18T04:28:56.212Z,78.81
2019-05-18T04:31:24.320Z,78.73
2019-05-18T04:33:52.841Z,78.39
2019-05-18T04:36:20.386Z,78.43
2019-05-18T04:38:47.880Z,78.69
2019-05-18T04:41:15.370Z,78.73
2019-05-18T04:43:42.851Z,78.79
2019-05-18T04:46:10.307Z,78.49
2019-05-18T04:48:37.834Z,78.19
2019-05-18T04:51:05.328Z,77.80
2019-05-18T04:53:32.814Z,77.16
2019-05-18T04:56:00.275Z,76.91
2019-05-18T04:58:27.775Z,76.92
2019-05-18T05:00:55.233Z,76.59
2019-05-18T05:03:22.732Z,76.17
2019-05-18T05:05:50.191Z,76.00
2019-05-18T05:08:17.681Z,76.12
2019-05-18T05:10:45.127Z,75.88
2019-05-18T05:13:12.621Z,75.33
2019-05-18T05:15:40.102Z,74.98
2019-05-18T05:18:07.591Z,75.17
2019-05-18T05:20:35.039Z,75.09
2019-05-18T05:23:02.539Z,74.55
2019-05-18T05:25:30.030Z,74.89
2019-05-18T05:27:57.532Z,74.43
2019-05-18T05:30:25.049Z,74.15
2019-05-18T05:32:52.539Z,74.27
2019-05-18T05:35:20.006Z,73.75
2019-05-18T05:37:47.476Z,73.84
2019-05-18T05:40:15.198Z,73.50
2019-05-18T05:42:42.679Z,73.38
2019-05-18T05:45:10.189Z,73.44
2019-05-18T05:47:37.673Z,73.32
2019-05-18T05:50:05.782Z,73.50
2019-05-18T05:52:33.263Z,73.50
2019-05-18T05:55:00.885Z,73.20
2019-05-18T05:57:28.399Z,72.81
2019-05-18T05:59:55.900Z,72.76
2019-05-18T06:02:23.417Z,72.52
2019-05-18T06:04:50.931Z,72.44
2019-05-18T06:07:18.397Z,72.21
2019-05-18T06:09:45.952Z,72.26
2019-05-18T06:12:13.410Z,72.29
2019-05-18T06:14:40.861Z,71.93
2019-05-18T06:17:08.619Z,71.42
2019-05-18T06:19:35.902Z,71.20
2019-05-18T06:22:03.422Z,70.98
2019-05-18T06:24:30.888Z,70.84
2019-05-18T06:26:58.412Z,70.46
2019-05-18T06:29:25.878Z,70.46
2019-05-18T06:31:53.375Z,70.50
2019-05-18T06:34:21.047Z,70.10
2019-05-18T06:36:48.538Z,69.70
2019-05-18T06:39:16.043Z,69.42
2019-05-18T06:41:43.667Z,69.29
2019-05-18T06:44:11.218Z,69.03
2019-05-18T06:46:39.091Z,69.23
2019-05-18T06:49:06.559Z,69.80
2019-05-18T06:51:34.030Z,70.30
2019-05-18T06:54:01.588Z,70.75
2019-05-18T06:56:29.119Z,70.81
2019-05-18T06:58:56.600Z,70.49
2019-05-18T07:01:24.114Z,70.12
2019-05-18T07:03:51.589Z,69.73
2019-05-18T07:06:19.047Z,69.80
2019-05-18T07:08:46.534Z,69.75
2019-05-18T07:11:14.985Z,69.58
2019-05-18T07:13:42.472Z,69.21
2019-05-18T07:16:09.931Z,68.81
2019-05-18T07:18:37.406Z,68.47
2019-05-18T07:21:04.847Z,68.06
2019-05-18T07:23:32.326Z,67.82
2019-05-18T07:25:59.866Z,67.49
2019-05-18T07:28:27.343Z,67.05
2019-05-18T07:30:54.827Z,66.54
2019-05-18T07:33:22.512Z,66.31
2019-05-18T07:35:50.167Z,66.21
2019-05-18T07:38:17.625Z,66.08
2019-05-18T07:40:45.162Z,65.52
2019-05-18T07:43:12.634Z,64.68
2019-05-18T07:45:41.004Z,64.05
2019-05-18T07:48:08.937Z,63.78
2019-05-18T07:50:36.811Z,63.37
2019-05-18T07:53:04.259Z,63.04
2019-05-18T07:55:31.771Z,62.98
2019-05-18T07:57:59.243Z,62.27
2019-05-18T08:00:26.754Z,61.21
2019-05-18T08:02:54.257Z,59.51
2019-05-18T08:05:21.734Z,58.48
2019-05-18T08:07:49.226Z,56.76
2019-05-18T08:10:16.761Z,55.45
2019-05-18T08:12:44.218Z,54.05
2019-05-18T08:15:11.750Z,53.04
2019-05-18T08:17:39.261Z,52.68
2019-05-18T08:20:06.771Z,52.86
2019-05-18T08:22:34.226Z,51.52
2019-05-18T08:25:01.711Z,50.93
2019-05-18T08:27:29.318Z,50.09
2019-05-18T08:29:56.820Z,48.53
2019-05-18T08:32:24.306Z,47.49
2019-05-18T08:34:51.986Z,47.25
2019-05-18T08:37:19.443Z,48.57
2019-05-18T08:39:47.511Z,48.49
2019-05-18T08:42:14.968Z,48.84
2019-05-18T08:44:42.421Z,48.22
2019-05-18T08:47:09.890Z,47.78
2019-05-18T08:49:37.381Z,47.16
2019-05-18T08:52:08.487Z,46.50
2019-05-18T08:54:31.692Z,45.79
2019-05-18T08:56:58.678Z,45.56
2019-05-18T08:59:25.738Z,45.65
2019-05-18T09:01:52.819Z,45.29
2019-05-18T09:04:19.864Z,45.18
2019-05-18T09:06:46.892Z,44.55
2019-05-18T09:09:13.896Z,44.07
2019-05-18T09:11:40.962Z,42.70
2019-05-18T09:14:08.321Z,42.59
2019-05-18T09:16:35.441Z,42.54
2019-05-18T09:19:02.517Z,40.89
2019-05-18T09:21:29.562Z,41.29
2019-05-18T09:23:56.868Z,41.79
2019-05-18T09:26:24.455Z,40.64
2019-05-18T09:28:51.569Z,40.89
2019-05-18T09:31:18.566Z,40.58
2019-05-18T09:33:45.559Z,40.22
2019-05-18T09:36:12.955Z,40.93
2019-05-18T09:38:40.004Z,40.87
2019-05-18T09:41:07.086Z,40.30
2019-05-18T09:43:34.158Z,39.85
2019-05-18T09:46:01.318Z,39.51
2019-05-18T09:48:28.492Z,39.74
2019-05-18T09:50:55.517Z,39.46
2019-05-18T09:53:22.532Z,38.25
2019-05-18T09:55:49.714Z,39.04
2019-05-18T09:58:16.788Z,39.36
2019-05-18T10:00:43.820Z,39.99
2019-05-18T10:03:10.899Z,40.37
2019-05-18T10:05:38.878Z,40.70
2019-05-18T10:08:05.981Z,40.84
2019-05-18T10:10:33.716Z,41.21
2019-05-18T10:13:00.089Z,40.74
2019-05-18T10:15:27.231Z,40.43
2019-05-18T10:17:54.258Z,40.10
2019-05-18T10:20:21.250Z,39.95
2019-05-18T10:22:59.152Z,40.35
2019-05-18T10:25:15.489Z,39.95
2019-05-18T10:27:42.633Z,40.57
2019-05-18T10:30:09.642Z,41.02
2019-05-18T10:32:36.830Z,40.07
2019-05-18T10:35:04.508Z,39.79
2019-05-18T10:37:31.845Z,40.42
2019-05-18T10:39:59.036Z,40.86
2019-05-18T10:42:26.066Z,41.49
2019-05-18T10:44:53.094Z,41.31
2019-05-18T10:47:20.186Z,40.81
2019-05-18T10:49:47.174Z,40.26
2019-05-18T10:52:14.182Z,40.48
2019-05-18T10:54:41.943Z,40.82
2019-05-18T10:57:08.983Z,41.07
2019-05-18T10:59:36.011Z,40.89
2019-05-18T11:02:03.046Z,40.43
2019-05-18T11:04:30.097Z,39.92
2019-05-18T11:06:57.136Z,39.28
2019-05-18T11:09:24.188Z,39.00
2019-05-18T11:11:51.205Z,39.07
2019-05-18T11:14:18.947Z,39.33
2019-05-18T11:16:45.464Z,39.60
2019-05-18T11:19:12.493Z,39.73
2019-05-18T11:21:39.555Z,39.73
2019-05-18T11:24:06.538Z,39.54
2019-05-18T11:26:33.598Z,39.44
2019-05-18T11:29:00.588Z,39.08
2019-05-18T11:31:27.665Z,38.48
2019-05-18T11:33:54.667Z,38.35
2019-05-18T11:36:21.697Z,39.04
2019-05-18T11:38:49.318Z,39.80
2019-05-18T11:41:16.415Z,39.95
2019-05-18T11:43:43.425Z,39.39
2019-05-18T11:46:11.650Z,39.08
2019-05-18T11:48:39.157Z,39.43
2019-05-18T11:51:06.644Z,38.78
2019-05-18T11:53:34.110Z,38.05
2019-05-18T11:56:01.621Z,37.23
2019-05-18T11:58:28.619Z,36.44
2019-05-18T12:00:55.718Z,36.40
2019-05-18T12:03:22.746Z,35.92
2019-05-18T12:05:49.766Z,36.22
2019-05-18T12:08:16.758Z,35.61
2019-05-18T12:10:43.854Z,35.37
2019-05-18T12:13:10.844Z,35.68
2019-05-18T12:15:37.912Z,36.72
2019-05-18T12:18:04.949Z,36.84
2019-05-18T12:20:31.971Z,37.27
2019-05-18T12:22:58.962Z,38.14
2019-05-18T12:25:25.976Z,38.47
2019-05-18T12:27:53.405Z,38.98
2019-05-18T12:30:20.943Z,39.31
2019-05-18T12:32:48.144Z,38.94
2019-05-18T12:35:15.367Z,38.64
2019-05-18T12:37:42.391Z,38.15
2019-05-18T12:40:09.573Z,38.28
2019-05-18T12:42:36.673Z,38.00
2019-05-18T12:45:03.712Z,37.88
2019-05-18T12:47:31.770Z,37.53
2019-05-18T12:49:58.911Z,36.80
2019-05-18T12:52:26.007Z,36.29
2019-05-18T12:54:53.511Z,36.15
2019-05-18T12:57:21.043Z,36.81
2019-05-18T12:59:48.640Z,37.30
2019-05-18T13:02:15.701Z,38.28
2019-05-18T13:04:42.741Z,38.51
2019-05-18T13:07:09.793Z,39.19
2019-05-18T13:09:36.841Z,39.87
2019-05-18T13:12:03.932Z,40.29
2019-05-18T13:14:30.934Z,40.58
2019-05-18T13:16:57.962Z,41.41
2019-05-18T13:19:26.030Z,41.28
2019-05-18T13:21:53.268Z,41.59
2019-05-18T13:24:20.445Z,41.83
2019-05-18T13:26:47.547Z,42.46
2019-05-18T13:29:14.593Z,42.88
2019-05-18T13:31:41.711Z,42.84
2019-05-18T13:34:08.759Z,42.34
2019-05-18T13:36:35.832Z,41.80
2019-05-18T13:39:02.842Z,41.06
2019-05-18T13:41:29.861Z,40.89
2019-05-18T13:43:57.607Z,40.73
2019-05-18T13:46:24.609Z,40.43
2019-05-18T13:48:51.611Z,40.72
2019-05-18T13:51:18.653Z,41.04
2019-05-18T13:53:45.662Z,42.47
2019-05-18T13:56:12.742Z,44.12
2019-05-18T13:58:39.819Z,45.08
2019-05-18T14:01:06.908Z,45.96
2019-05-18T14:03:33.945Z,46.21
2019-05-18T14:06:00.962Z,46.74
2019-05-18T14:08:27.977Z,46.27
2019-05-18T14:10:54.986Z,45.77
2019-05-18T14:13:21.980Z,45.27
2019-05-18T14:15:49.116Z,45.24
2019-05-18T14:18:16.097Z,45.52
2019-05-18T14:20:43.160Z,45.86
2019-05-18T14:23:10.197Z,46.08
2019-05-18T14:25:37.178Z,45.98
2019-05-18T14:28:04.189Z,45.97
2019-05-18T14:30:31.169Z,46.57
2019-05-18T14:32:58.249Z,46.68
2019-05-18T14:35:25.254Z,46.15
2019-05-18T14:37:52.297Z,45.63
2019-05-18T14:40:19.285Z,45.45
2019-05-18T14:42:46.312Z,45.39
2019-05-18T14:45:13.436Z,45.17
2019-05-18T14:47:40.678Z,45.48
2019-05-18T14:50:07.808Z,46.61
2019-05-18T14:52:34.914Z,47.40
2019-05-18T14:55:02.023Z,47.58
2019-05-18T14:57:29.157Z,47.70
2019-05-18T14:59:56.171Z,48.04
2019-05-18T15:02:23.393Z,48.56
2019-05-18T15:04:53.376Z,48.60
2019-05-18T15:07:17.500Z,48.19
2019-05-18T15:09:44.494Z,47.83
2019-05-18T15:12:11.543Z,47.72
2019-05-18T15:14:38.672Z,47.53
2019-05-18T15:17:05.693Z,47.66
2019-05-18T15:19:32.714Z,48.21
2019-05-18T15:21:59.762Z,48.14
2019-05-18T15:24:26.781Z,48.07
2019-05-18T15:26:53.938Z,47.97
2019-05-18T15:29:20.968Z,48.09
2019-05-18T15:31:48.172Z,47.57
2019-05-18T15:34:15.194Z,47.51
2019-05-18T15:36:42.194Z,47.58
2019-05-18T15:39:09.517Z,47.58
2019-05-18T15:41:36.671Z,47.86
2019-05-18T15:44:03.740Z,47.37
2019-05-18T15:46:30.814Z,47.35
2019-05-18T15:48:57.869Z,47.36
2019-05-18T15:51:24.903Z,47.46
2019-05-18T15:53:51.941Z,47.38
2019-05-18T15:56:19.453Z,47.57
2019-05-18T15:58:47.003Z,46.88
2019-05-18T16:01:14.497Z,46.42
2019-05-18T16:03:41.498Z,46.17
2019-05-18T16:06:08.562Z,46.39
2019-05-18T16:08:36.191Z,47.08
2019-05-18T16:11:03.407Z,48.00
2019-05-18T16:13:30.433Z,47.86
2019-05-18T16:15:57.437Z,47.68
2019-05-18T16:18:25.060Z,47.63
2019-05-18T16:20:52.606Z,48.06
2019-05-18T16:23:19.673Z,48.50
2019-05-18T16:25:46.820Z,48.29
2019-05-18T16:28:13.919Z,48.84
2019-05-18T16:30:41.391Z,48.93
2019-05-18T16:33:08.912Z,48.61
2019-05-18T16:35:35.907Z,48.38
2019-05-18T16:38:02.911Z,48.08
2019-05-18T16:40:30.262Z,47.99
2019-05-18T16:42:57.925Z,48.08
2019-05-18T16:45:25.012Z,48.45
2019-05-18T16:47:52.034Z,48.80
2019-05-18T16:50:19.090Z,49.02
2019-05-18T16:52:46.253Z,49.54
2019-05-18T16:55:13.294Z,50.30
2019-05-18T16:57:40.353Z,50.90
2019-05-18T17:00:10.026Z,51.13
2019-05-18T17:02:37.063Z,52.05
2019-05-18T17:05:04.041Z,52.93
2019-05-18T17:07:31.163Z,53.25
2019-05-18T17:09:58.164Z,53.62
2019-05-18T17:12:25.142Z,53.95
2019-05-18T17:14:52.127Z,53.78
2019-05-18T17:17:19.683Z,53.85
2019-05-18T17:19:47.345Z,54.32
2019-05-18T17:22:14.946Z,54.13
2019-05-18T17:24:42.427Z,54.18
2019-05-18T17:27:10.075Z,53.96
2019-05-18T17:29:37.580Z,53.64
2019-05-18T17:32:05.663Z,53.52
2019-05-18T17:34:33.134Z,53.39
2019-05-18T17:37:00.643Z,52.94
2019-05-18T17:39:28.138Z,52.55
2019-05-18T17:41:56.631Z,52.06
2019-05-18T17:44:24.969Z,52.00
2019-05-18T17:46:52.648Z,51.85
2019-05-18T17:49:26.694Z,51.51
2019-05-18T17:51:47.714Z,51.69
2019-05-18T17:54:14.762Z,51.52
2019-05-18T17:56:41.801Z,52.17
2019-05-18T17:59:08.820Z,52.60
2019-05-18T18:01:36.354Z,52.87
2019-05-18T18:04:03.938Z,52.80
2019-05-18T18:06:31.705Z,52.87
2019-05-18T18:08:59.217Z,53.37
2019-05-18T18:11:26.737Z,53.52
2019-05-18T18:13:53.837Z,53.69
2019-05-18T18:16:21.458Z,53.80
2019-05-18T18:18:48.942Z,53.33
2019-05-18T18:21:15.985Z,53.31
2019-05-18T18:23:42.998Z,53.33
2019-05-18T18:26:10.453Z,53.43
2019-05-18T18:28:38.051Z,53.67
2019-05-18T18:31:05.508Z,54.20
2019-05-18T18:33:33.000Z,54.48
2019-05-18T18:36:00.459Z,54.73
2019-05-18T18:38:27.935Z,55.81
2019-05-18T18:40:55.404Z,55.85
2019-05-18T18:43:23.084Z,55.83
2019-05-18T18:45:50.182Z,56.18
2019-05-18T18:48:17.753Z,56.40
2019-05-18T18:50:45.238Z,56.34
2019-05-18T18:53:12.770Z,56.55
2019-05-18T18:55:40.506Z,56.64
2019-05-18T18:58:07.604Z,56.78
2019-05-18T19:00:34.609Z,56.73
2019-05-18T19:03:02.055Z,56.73
2019-05-18T19:05:29.568Z,57.03
2019-05-18T19:07:57.072Z,57.20
2019-05-18T19:10:24.539Z,57.24
2019-05-18T19:12:52.095Z,57.53
2019-05-18T19:15:19.668Z,57.39
2019-05-18T19:17:47.130Z,57.40
2019-05-18T19:20:14.652Z,57.51
2019-05-18T19:22:42.235Z,57.58
2019-05-18T19:25:09.735Z,57.78
2019-05-18T19:27:37.476Z,57.79
2019-05-18T19:30:09.372Z,57.81
2019-05-18T19:32:32.987Z,57.87
2019-05-18T19:35:00.459Z,57.75
2019-05-18T19:37:27.969Z,57.83
2019-05-18T19:39:55.499Z,57.87
2019-05-18T19:42:23.396Z,58.03
2019-05-18T19:44:50.951Z,58.13
2019-05-18T19:47:18.526Z,58.28
2019-05-18T19:49:46.152Z,58.62
2019-05-18T19:52:13.852Z,58.88
2019-05-18T19:54:41.360Z,59.00
2019-05-18T19:57:08.911Z,59.11
2019-05-18T19:59:36.457Z,59.26
2019-05-18T20:02:04.096Z,59.49
2019-05-18T20:04:31.619Z,59.84
2019-05-18T20:06:59.152Z,60.05
2019-05-18T20:09:26.673Z,60.59
2019-05-18T20:11:54.256Z,60.89
2019-05-18T20:14:21.759Z,60.76
2019-05-18T20:16:49.376Z,60.68
2019-05-18T20:19:18.202Z,60.84
2019-05-18T20:21:45.823Z,60.42
2019-05-18T20:24:14.325Z,60.15
2019-05-18T20:26:41.857Z,60.02
2019-05-18T20:29:09.677Z,59.84
2019-05-18T20:31:37.212Z,60.26
2019-05-18T20:34:04.748Z,60.67
2019-05-18T20:36:32.271Z,60.60
2019-05-18T20:38:59.735Z,60.90
2019-05-18T20:41:27.288Z,60.95
2019-05-18T20:43:54.751Z,61.31
2019-05-18T20:46:22.279Z,61.64
2019-05-18T20:48:49.738Z,61.72
2019-05-18T20:51:17.239Z,61.83
2019-05-18T20:53:44.756Z,61.67
2019-05-18T20:56:12.240Z,62.16
2019-05-18T20:58:40.854Z,62.07
2019-05-18T21:01:07.306Z,61.96
2019-05-18T21:03:34.811Z,61.84
2019-05-18T21:06:02.366Z,61.88
2019-05-18T21:08:29.892Z,62.04
2019-05-18T21:10:57.370Z,62.36
2019-05-18T21:13:25.848Z,63.30
2019-05-18T21:15:53.343Z,64.06
2019-05-18T21:18:20.911Z,64.60
2019-05-18T21:20:48.450Z,65.08
2019-05-18T21:23:15.940Z,65.27
2019-05-18T21:25:43.610Z,65.05
2019-05-18T21:28:11.066Z,64.65
2019-05-18T21:30:38.599Z,65.20
2019-05-18T21:33:06.139Z,65.75
2019-05-18T21:35:33.625Z,65.74
2019-05-18T21:38:01.367Z,65.80
2019-05-18T21:40:29.004Z,65.81
2019-05-18T21:42:56.540Z,65.84
2019-05-18T21:45:24.157Z,65.93
2019-05-18T21:47:52.803Z,65.91
2019-05-18T21:50:20.575Z,65.69
2019-05-18T21:52:48.026Z,65.80
2019-05-18T21:55:15.576Z,65.75
2019-05-18T21:57:43.077Z,65.75
2019-05-18T22:00:10.594Z,65.75
2019-05-18T22:02:38.084Z,65.91
2019-05-18T22:05:05.568Z,65.88
2019-05-18T22:07:33.055Z,66.03
2019-05-18T22:10:00.617Z,66.17
2019-05-18T22:12:28.150Z,66.14
2019-05-18T22:14:55.638Z,66.38
2019-05-18T22:17:23.208Z,66.69
2019-05-18T22:19:50.729Z,67.01
2019-05-18T22:22:18.282Z,67.17
2019-05-18T22:24:46.538Z,67.52
2019-05-18T22:27:14.015Z,67.68
2019-05-18T22:29:41.609Z,68.00
2019-05-18T22:32:09.128Z,67.99
2019-05-18T22:34:36.769Z,67.89
2019-05-18T22:37:04.253Z,68.01
2019-05-18T22:39:31.888Z,68.33
2019-05-18T22:41:59.532Z,68.06
2019-05-18T22:44:27.023Z,68.01
2019-05-18T22:46:54.512Z,67.84
2019-05-18T22:49:21.988Z,67.67
2019-05-18T22:51:49.426Z,67.86
2019-05-18T22:54:16.893Z,67.90
2019-05-18T22:56:44.343Z,68.14
2019-05-18T22:59:12.514Z,68.12
2019-05-18T23:01:39.976Z,68.30
2019-05-18T23:04:07.423Z,68.44
2019-05-18T23:06:34.891Z,68.68
2019-05-18T23:09:03.356Z,68.82
2019-05-18T23:11:30.927Z,69.01
2019-05-18T23:13:58.418Z,69.27
2019-05-18T23:16:25.877Z,68.93
2019-05-18T23:18:56.856Z,68.99
2019-05-18T23:21:20.858Z,69.26
2019-05-18T23:23:48.318Z,69.28
2019-05-18T23:26:15.775Z,69.54
2019-05-18T23:28:43.275Z,69.46
2019-05-18T23:31:11.025Z,69.15
2019-05-18T23:33:38.564Z,69.11
2019-05-18T23:36:06.092Z,69.28
2019-05-18T23:38:33.570Z,69.32
2019-05-18T23:41:01.113Z,69.60
2019-05-18T23:43:28.594Z,69.89
2019-05-18T23:45:56.126Z,70.31
2019-05-18T23:48:23.694Z,70.64
2019-05-18T23:50:51.242Z,70.80
2019-05-18T23:53:18.753Z,70.86
2019-05-18T23:55:46.210Z,70.96
2019-05-18T23:58:13.760Z,71.14
